Time;durP1;ratioP1;P1;durP2;ratioP2;P2;SDS_P1;SDS_P2;PMS_P1;PMS_P2;Temp;Humidity;BMP_temperature;BMP_pressure;BME280_temperature;BME280_humidity;BME280_pressure;Samples;Min_cycle;Max_cycle;Signal;HPM_P1;HPM_P2
2022/09/18 00:02:20;;;;;;;;;6.33;5.00;;;;;;;;5044422;28;45616;-68
2022/09/18 00:04:45;;;;;;;;;7.33;7.33;;;;;;;;5044651;28;45438;-68
2022/09/18 00:07:11;;;;;;;;;8.00;6.00;;;;;;;;5043844;28;45516;-68
2022/09/18 00:09:36;;;;;;;;;9.33;7.33;;;;;;;;5043792;28;45399;-68
2022/09/18 00:12:01;;;;;;;;;8.00;5.33;;;;;;;;5044239;28;45205;-68
2022/09/18 00:14:27;;;;;;;;;12.33;7.67;;;;;;;;5044287;28;45197;-68
2022/09/18 00:16:52;;;;;;;;;10.33;8.67;;;;;;;;5043878;28;45242;-68
2022/09/18 00:19:17;;;;;;;;;7.33;7.33;;;;;;;;5043502;28;45151;-68
2022/09/18 00:21:44;;;;;;;;;7.00;7.00;;;;;;;;5043902;28;45260;-68
2022/09/18 00:24:10;;;;;;;;;7.00;7.00;;;;;;;;5044111;28;45288;-68
2022/09/18 00:26:35;;;;;;;;;6.33;6.00;;;;;;;;5041450;28;47648;-68
2022/09/18 00:29:01;;;;;;;;;5.67;5.67;;;;;;;;5043277;28;45236;-68
2022/09/18 00:31:30;;;;;;;;;6.00;6.00;;;;;;;;5043473;28;45459;-69
2022/09/18 00:34:00;;;;;;;;;6.00;6.00;;;;;;;;5042683;28;45667;-69
2022/09/18 00:36:25;;;;;;;;;6.33;6.00;;;;;;;;5025661;28;46107;-69
2022/09/18 00:38:50;;;;;;;;;8.00;8.00;;;;;;;;5042934;28;45412;-69
2022/09/18 00:41:23;;;;;;;;;7.00;7.00;;;;;;;;5042350;28;45322;-69
2022/09/18 00:43:49;;;;;;;;;6.00;6.00;;;;;;;;5043538;28;45208;-69
2022/09/18 00:46:24;;;;;;;;;7.67;7.00;;;;;;;;5043186;28;46956;-69
2022/09/18 00:49:03;;;;;;;;;7.33;7.33;;;;;;;;5043247;28;45220;-68
2022/09/18 00:51:31;;;;;;;;;7.00;7.00;;;;;;;;5043207;28;45378;-69
2022/09/18 00:54:02;;;;;;;;;7.33;7.33;;;;;;;;5043435;28;45407;-69
2022/09/18 00:56:28;;;;;;;;;7.00;7.00;;;;;;;;5041685;28;47233;-69
2022/09/18 00:58:53;;;;;;;;;8.00;6.67;;;;;;;;5043068;28;45295;-69
2022/09/18 01:01:18;;;;;;;;;8.33;7.00;;;;;;;;5043234;28;45560;-69
2022/09/18 01:03:43;;;;;;;;;7.67;7.00;;;;;;;;5043795;28;45593;-69
2022/09/18 01:06:38;;;;;;;;;10.00;7.00;;;;;;;;5042950;28;46269;-69
2022/09/18 01:09:03;;;;;;;;;6.00;6.00;;;;;;;;5004383;28;45459;-69
2022/09/18 01:11:43;;;;;;;;;9.00;9.00;;;;;;;;5043242;28;45309;-69
2022/09/18 01:14:17;;;;;;;;;8.00;8.00;;;;;;;;5043406;28;45556;-69
2022/09/18 01:16:56;;;;;;;;;8.67;6.33;;;;;;;;5042961;28;45407;-69
2022/09/18 01:19:37;;;;;;;;;12.33;7.00;;;;;;;;5042604;28;45335;-69
2022/09/18 01:22:11;;;;;;;;;5.00;4.00;;;;;;;;5025003;28;45272;-66
2022/09/18 01:24:54;;;;;;;;;7.67;6.00;;;;;;;;5043093;28;45637;-69
2022/09/18 01:27:26;;;;;;;;;7.33;7.00;;;;;;;;5042532;28;45413;-69
2022/09/18 01:30:01;;;;;;;;;10.00;8.00;;;;;;;;5031300;28;45488;-69
2022/09/18 01:32:47;;;;;;;;;8.00;8.00;;;;;;;;5046544;28;45386;-69
2022/09/18 01:35:13;;;;;;;;;10.33;10.33;;;;;;;;5046115;28;45319;-69
2022/09/18 01:37:41;;;;;;;;;7.00;7.00;;;;;;;;5046325;28;45397;-69
2022/09/18 01:40:11;;;;;;;;;12.67;10.67;;;;;;;;5046086;28;45423;-68
2022/09/18 01:42:38;;;;;;;;;12.67;9.00;;;;;;;;5026962;28;45342;-69
2022/09/18 01:45:06;;;;;;;;;7.33;7.33;;;;;;;;5062029;28;45324;-69
2022/09/18 01:47:36;;;;;;;;;9.33;8.00;;;;;;;;5046267;28;45524;-69
2022/09/18 01:50:01;;;;;;;;;5.67;5.33;;;;;;;;5060830;28;45354;-69
2022/09/18 01:52:30;;;;;;;;;8.33;6.67;;;;;;;;5046280;28;45279;-69
2022/09/18 01:54:57;;;;;;;;;7.33;5.67;;;;;;;;5046477;28;45441;-69
2022/09/18 01:57:28;;;;;;;;;8.67;8.00;;;;;;;;5045703;28;45359;-70
2022/09/18 02:00:01;;;;;;;;;7.67;6.00;;;;;;;;5045701;28;45260;-67
2022/09/18 02:02:31;;;;;;;;;6.00;6.00;;;;;;;;5045750;28;45281;-67
2022/09/18 02:04:58;;;;;;;;;9.33;6.00;;;;;;;;5028537;28;45576;-67
2022/09/18 02:07:44;;;;;;;;;6.00;6.00;;;;;;;;5045531;28;45240;-67
2022/09/18 02:10:09;;;;;;;;;8.00;6.00;;;;;;;;5034324;28;45534;-67
2022/09/18 02:12:37;;;;;;;;;7.67;7.00;;;;;;;;5045936;28;45554;-67
2022/09/18 02:15:08;;;;;;;;;7.00;7.00;;;;;;;;5046331;28;45565;-67
2022/09/18 02:17:37;;;;;;;;;10.67;7.67;;;;;;;;5045456;28;46069;-67
2022/09/18 02:20:09;;;;;;;;;6.00;5.00;;;;;;;;5045732;28;45347;-67
2022/09/18 02:22:34;;;;;;;;;8.33;5.67;;;;;;;;5045602;28;45310;-68
2022/09/18 02:25:01;;;;;;;;;7.00;7.00;;;;;;;;5045952;28;45598;-67
2022/09/18 02:27:28;;;;;;;;;5.00;5.00;;;;;;;;5045254;28;45532;-67
2022/09/18 02:29:54;;;;;;;;;5.00;4.33;;;;;;;;5045323;28;45295;-67
2022/09/18 02:32:19;;;;;;;;;8.33;5.33;;;;;;;;5045588;28;45448;-68
2022/09/18 02:34:44;;;;;;;;;5.33;5.33;;;;;;;;5046092;28;45249;-67
2022/09/18 02:37:28;;;;;;;;;7.33;6.00;;;;;;;;5045033;28;45418;-67
2022/09/18 02:39:53;;;;;;;;;5.00;5.00;;;;;;;;5044944;28;45379;-68
2022/09/18 02:42:37;;;;;;;;;6.00;4.33;;;;;;;;5045308;28;45445;-67
2022/09/18 02:45:15;;;;;;;;;4.00;4.00;;;;;;;;5045816;28;45306;-68
2022/09/18 02:47:43;;;;;;;;;5.67;4.00;;;;;;;;5045366;28;45388;-67
2022/09/18 02:50:15;;;;;;;;;3.33;3.33;;;;;;;;5027134;28;46305;-68
2022/09/18 02:52:59;;;;;;;;;4.00;4.00;;;;;;;;5045461;28;45283;-68
2022/09/18 02:55:27;;;;;;;;;6.00;4.67;;;;;;;;5045491;28;45699;-68
2022/09/18 02:57:55;;;;;;;;;2.67;2.33;;;;;;;;5043226;28;47638;-68
2022/09/18 03:00:21;;;;;;;;;3.00;3.00;;;;;;;;5044951;28;45220;-68
2022/09/18 03:02:48;;;;;;;;;5.00;5.00;;;;;;;;5045050;28;45384;-67
2022/09/18 03:05:13;;;;;;;;;4.00;4.00;;;;;;;;5045509;28;45406;-68
2022/09/18 03:07:39;;;;;;;;;4.33;4.33;;;;;;;;5044598;28;46233;-68
2022/09/18 03:10:04;;;;;;;;;6.00;6.00;;;;;;;;5044590;28;45357;-68
2022/09/18 03:12:30;;;;;;;;;4.33;4.33;;;;;;;;5045028;28;45389;-68
2022/09/18 03:14:55;;;;;;;;;7.33;5.00;;;;;;;;5045478;28;45564;-68
2022/09/18 03:17:20;;;;;;;;;5.00;5.00;;;;;;;;5044823;28;46210;-68
2022/09/18 03:19:45;;;;;;;;;2.67;2.00;;;;;;;;5044966;28;45291;-68
2022/09/18 03:22:10;;;;;;;;;7.00;6.00;;;;;;;;5026985;28;45485;-67
2022/09/18 03:24:36;;;;;;;;;7.00;5.00;;;;;;;;5045214;28;45545;-68
2022/09/18 03:27:01;;;;;;;;;5.00;5.00;;;;;;;;5044587;28;45339;-67
2022/09/18 03:29:26;;;;;;;;;5.00;5.00;;;;;;;;5044664;28;45371;-68
2022/09/18 03:31:52;;;;;;;;;5.00;4.00;;;;;;;;5044546;28;45162;-68
2022/09/18 03:34:17;;;;;;;;;5.00;4.00;;;;;;;;5045109;28;45235;-68
2022/09/18 03:36:42;;;;;;;;;3.67;3.00;;;;;;;;5044369;28;46452;-68
2022/09/18 03:39:07;;;;;;;;;5.00;5.00;;;;;;;;5044413;28;45304;-68
2022/09/18 03:41:32;;;;;;;;;6.00;4.00;;;;;;;;5044395;28;45624;-68
2022/09/18 03:43:58;;;;;;;;;3.67;3.67;;;;;;;;5044926;28;45379;-68
2022/09/18 03:46:23;;;;;;;;;5.00;5.00;;;;;;;;5044032;28;46165;-68
2022/09/18 03:48:49;;;;;;;;;4.00;4.00;;;;;;;;5044416;28;45375;-69
2022/09/18 03:51:14;;;;;;;;;4.00;4.00;;;;;;;;5044368;28;45419;-68
2022/09/18 03:53:39;;;;;;;;;5.67;4.00;;;;;;;;5043565;28;45216;-67
2022/09/18 03:56:05;;;;;;;;;3.67;3.00;;;;;;;;5044233;28;45593;-69
2022/09/18 03:58:30;;;;;;;;;4.00;3.67;;;;;;;;5044321;28;45234;-69
2022/09/18 04:00:55;;;;;;;;;4.00;4.00;;;;;;;;5044391;28;45236;-68
2022/09/18 04:03:20;;;;;;;;;7.00;5.67;;;;;;;;5044665;28;45228;-69
2022/09/18 04:05:47;;;;;;;;;3.00;3.00;;;;;;;;5025716;28;45288;-69
2022/09/18 04:08:12;;;;;;;;;3.00;3.00;;;;;;;;5043989;28;45330;-68
2022/09/18 04:10:37;;;;;;;;;5.33;4.67;;;;;;;;5044336;28;45377;-69
2022/09/18 04:13:02;;;;;;;;;3.00;3.00;;;;;;;;5044504;28;45346;-69
2022/09/18 04:15:28;;;;;;;;;4.33;4.33;;;;;;;;5044063;28;46746;-69
2022/09/18 04:17:53;;;;;;;;;4.00;4.00;;;;;;;;5043809;28;45269;-69
2022/09/18 04:20:18;;;;;;;;;2.67;2.67;;;;;;;;5026088;28;45555;-69
2022/09/18 04:22:43;;;;;;;;;5.00;3.00;;;;;;;;5044175;28;45482;-69
2022/09/18 04:25:08;;;;;;;;;6.33;5.00;;;;;;;;5043626;28;46676;-68
2022/09/18 04:27:35;;;;;;;;;4.00;4.00;;;;;;;;5043553;28;45315;-69
2022/09/18 04:30:00;;;;;;;;;5.00;3.67;;;;;;;;5043431;28;45421;-69
2022/09/18 04:32:25;;;;;;;;;3.67;3.67;;;;;;;;5043895;28;45339;-68
2022/09/18 04:34:51;;;;;;;;;5.00;4.33;;;;;;;;5043609;28;45666;-69
2022/09/18 04:37:16;;;;;;;;;6.00;3.00;;;;;;;;5025375;28;45182;-69
2022/09/18 04:39:41;;;;;;;;;5.00;5.00;;;;;;;;5043399;28;45237;-69
2022/09/18 04:42:06;;;;;;;;;4.00;4.00;;;;;;;;5025751;28;45498;-69
2022/09/18 04:44:32;;;;;;;;;5.00;4.00;;;;;;;;5043577;28;45161;-69
2022/09/18 04:46:57;;;;;;;;;3.00;3.00;;;;;;;;5042920;28;45530;-69
2022/09/18 04:49:22;;;;;;;;;4.00;4.00;;;;;;;;5041508;28;45219;-69
2022/09/18 04:51:47;;;;;;;;;4.33;4.33;;;;;;;;5043332;28;45248;-69
2022/09/18 04:54:12;;;;;;;;;5.00;5.00;;;;;;;;5042954;28;45392;-69
2022/09/18 04:56:38;;;;;;;;;5.00;5.00;;;;;;;;5043270;28;45433;-69
2022/09/18 04:59:03;;;;;;;;;4.33;4.00;;;;;;;;5043294;28;45258;-69
2022/09/18 05:01:28;;;;;;;;;6.00;6.00;;;;;;;;5043462;28;45237;-68
2022/09/18 05:03:54;;;;;;;;;5.00;4.00;;;;;;;;5042577;28;45232;-69
2022/09/18 05:06:19;;;;;;;;;5.00;3.33;;;;;;;;5042227;28;45220;-68
2022/09/18 05:08:44;;;;;;;;;5.00;3.33;;;;;;;;5042828;28;45382;-69
2022/09/18 05:11:09;;;;;;;;;5.00;5.00;;;;;;;;5043448;28;45312;-68
2022/09/18 05:13:35;;;;;;;;;6.33;5.00;;;;;;;;5043163;28;46608;-69
2022/09/18 05:16:00;;;;;;;;;4.33;3.67;;;;;;;;5043065;28;45208;-69
2022/09/18 05:18:25;;;;;;;;;4.00;4.00;;;;;;;;5025370;28;45691;-69
2022/09/18 05:20:51;;;;;;;;;3.00;3.00;;;;;;;;5043397;28;45172;-69
2022/09/18 05:23:16;;;;;;;;;5.33;4.00;;;;;;;;5042853;28;45293;-69
2022/09/18 05:25:41;;;;;;;;;3.00;3.00;;;;;;;;5042830;28;45421;-69
2022/09/18 05:28:08;;;;;;;;;4.33;3.00;;;;;;;;5024342;28;45432;-69
2022/09/18 05:30:33;;;;;;;;;4.00;4.00;;;;;;;;5042763;28;45450;-69
2022/09/18 05:33:00;;;;;;;;;6.00;4.00;;;;;;;;5042376;28;46103;-69
2022/09/18 05:35:26;;;;;;;;;5.33;5.00;;;;;;;;5042351;28;45392;-69
2022/09/18 05:37:52;;;;;;;;;6.33;4.00;;;;;;;;5041064;28;45536;-68
2022/09/18 05:40:22;;;;;;;;;5.00;3.67;;;;;;;;5042249;28;45231;-68
2022/09/18 05:42:48;;;;;;;;;5.33;4.00;;;;;;;;5042323;28;45635;-68
2022/09/18 05:45:14;;;;;;;;;3.67;3.00;;;;;;;;5042223;28;45314;-68
2022/09/18 05:47:40;;;;;;;;;4.00;4.00;;;;;;;;5042786;28;45379;-69
2022/09/18 05:50:06;;;;;;;;;4.67;4.67;;;;;;;;5042762;28;45343;-68
2022/09/18 05:52:31;;;;;;;;;6.00;4.00;;;;;;;;5042238;28;46277;-68
2022/09/18 05:54:56;;;;;;;;;4.00;4.00;;;;;;;;5042165;28;45255;-68
2022/09/18 05:57:22;;;;;;;;;3.00;3.00;;;;;;;;5042606;28;45290;-68
2022/09/18 05:59:47;;;;;;;;;4.00;4.00;;;;;;;;5042936;28;45201;-68
2022/09/18 06:02:12;;;;;;;;;2.67;2.67;;;;;;;;5042592;28;45392;-68
2022/09/18 06:04:38;;;;;;;;;4.67;3.67;;;;;;;;5042297;28;45270;-68
2022/09/18 06:07:04;;;;;;;;;6.67;5.00;;;;;;;;5042727;28;45187;-69
2022/09/18 06:09:29;;;;;;;;;4.67;4.67;;;;;;;;5041092;28;45247;-68
2022/09/18 06:11:54;;;;;;;;;6.67;5.67;;;;;;;;5042293;28;46746;-68
2022/09/18 06:14:19;;;;;;;;;5.00;5.00;;;;;;;;5023997;28;45234;-68
2022/09/18 06:16:45;;;;;;;;;3.00;3.00;;;;;;;;5044342;28;45208;-68
2022/09/18 06:19:10;;;;;;;;;5.33;3.67;;;;;;;;5046161;28;45468;-68
2022/09/18 06:21:35;;;;;;;;;5.00;4.00;;;;;;;;5045391;28;45324;-68
2022/09/18 06:24:00;;;;;;;;;6.33;6.33;;;;;;;;5026783;28;45464;-68
2022/09/18 06:26:26;;;;;;;;;3.00;3.00;;;;;;;;5045683;28;45129;-68
2022/09/18 06:28:51;;;;;;;;;4.33;4.00;;;;;;;;5044582;28;45179;-68
2022/09/18 06:31:16;;;;;;;;;5.33;4.00;;;;;;;;5044979;28;45513;-69
2022/09/18 06:33:41;;;;;;;;;6.00;4.33;;;;;;;;5045042;28;45352;-69
2022/09/18 06:36:10;;;;;;;;;2.67;2.67;;;;;;;;5045406;28;45283;-69
2022/09/18 06:38:35;;;;;;;;;3.67;3.67;;;;;;;;5045095;28;45242;-69
2022/09/18 06:41:01;;;;;;;;;6.00;5.00;;;;;;;;5027169;28;46938;-69
2022/09/18 06:43:26;;;;;;;;;6.33;6.33;;;;;;;;5034448;28;45296;-69
2022/09/18 06:45:52;;;;;;;;;6.00;6.00;;;;;;;;5045216;28;45207;-67
2022/09/18 06:48:17;;;;;;;;;7.00;5.67;;;;;;;;5045601;28;45264;-69
2022/09/18 06:50:43;;;;;;;;;2.67;2.67;;;;;;;;5044694;28;46112;-69
2022/09/18 06:53:08;;;;;;;;;5.00;4.00;;;;;;;;5044360;28;45226;-69
2022/09/18 06:55:33;;;;;;;;;4.00;4.00;;;;;;;;5045366;28;45557;-69
2022/09/18 06:57:59;;;;;;;;;4.33;4.00;;;;;;;;5045582;28;45292;-69
2022/09/18 07:00:25;;;;;;;;;6.33;5.00;;;;;;;;5044997;28;45456;-69
2022/09/18 07:02:57;;;;;;;;;5.00;4.00;;;;;;;;5045026;28;45245;-69
2022/09/18 07:05:23;;;;;;;;;8.00;6.33;;;;;;;;5027162;28;45232;-69
2022/09/18 07:07:48;;;;;;;;;5.33;5.33;;;;;;;;5045001;28;45438;-69
2022/09/18 07:10:13;;;;;;;;;6.67;5.33;;;;;;;;5044709;28;46401;-69
2022/09/18 07:12:38;;;;;;;;;5.33;4.00;;;;;;;;5044744;28;45305;-69
2022/09/18 07:15:04;;;;;;;;;5.00;5.00;;;;;;;;5044907;28;45212;-69
2022/09/18 07:17:29;;;;;;;;;4.00;4.00;;;;;;;;5044880;28;45493;-69
2022/09/18 07:19:54;;;;;;;;;6.33;5.00;;;;;;;;5043431;28;47169;-69
2022/09/18 07:22:20;;;;;;;;;1.33;1.33;;;;;;;;5044428;28;45351;-69
2022/09/18 07:24:45;;;;;;;;;4.00;4.00;;;;;;;;5044567;28;45219;-69
2022/09/18 07:27:10;;;;;;;;;5.67;4.33;;;;;;;;5044149;28;45144;-69
2022/09/18 07:29:35;;;;;;;;;3.00;3.00;;;;;;;;5043881;28;46589;-69
2022/09/18 07:32:00;;;;;;;;;5.67;4.00;;;;;;;;5044225;28;45449;-69
2022/09/18 07:34:26;;;;;;;;;3.33;3.33;;;;;;;;5044505;28;45415;-69
2022/09/18 07:36:51;;;;;;;;;5.00;4.67;;;;;;;;5044971;28;45206;-69
2022/09/18 07:39:16;;;;;;;;;7.00;3.67;;;;;;;;5044048;28;45473;-68
2022/09/18 07:41:42;;;;;;;;;5.33;5.33;;;;;;;;5044129;28;45402;-68
2022/09/18 07:44:08;;;;;;;;;7.67;6.67;;;;;;;;5043867;28;45475;-67
2022/09/18 07:46:33;;;;;;;;;6.00;4.67;;;;;;;;5044273;28;45378;-70
2022/09/18 07:48:58;;;;;;;;;7.67;7.67;;;;;;;;5044069;28;45527;-67
2022/09/18 07:51:24;;;;;;;;;6.00;5.00;;;;;;;;5043994;28;45301;-70
2022/09/18 07:53:49;;;;;;;;;4.00;4.00;;;;;;;;5043850;28;45374;-70
2022/09/18 07:56:14;;;;;;;;;4.00;4.00;;;;;;;;5044351;28;45471;-69
2022/09/18 07:58:40;;;;;;;;;5.00;5.00;;;;;;;;5043800;28;46060;-70
2022/09/18 08:01:05;;;;;;;;;5.00;5.00;;;;;;;;5043591;28;45348;-68
2022/09/18 08:03:30;;;;;;;;;6.00;6.00;;;;;;;;5043964;28;45188;-68
2022/09/18 08:05:56;;;;;;;;;0.00;0.00;;;;;;;;5044315;28;45363;-68
2022/09/18 08:08:21;;;;;;;;;7.00;7.00;;;;;;;;5043316;28;45573;-68
2022/09/18 08:10:47;;;;;;;;;6.33;6.00;;;;;;;;5043721;28;45201;-69
2022/09/18 08:13:12;;;;;;;;;8.00;8.00;;;;;;;;5025977;28;45315;-68
2022/09/18 08:15:39;;;;;;;;;7.00;7.00;;;;;;;;5043881;28;45492;-69
2022/09/18 08:18:05;;;;;;;;;12.75;12.00;;;;;;;;5043561;28;45270;-69
2022/09/18 08:20:31;;;;;;;;;7.67;7.67;;;;;;;;5025224;28;45232;-69
2022/09/18 08:22:57;;;;;;;;;11.00;9.00;;;;;;;;5043349;28;45463;-69
2022/09/18 08:25:22;;;;;;;;;8.33;7.00;;;;;;;;5044022;28;45530;-69
2022/09/18 08:27:47;;;;;;;;;6.33;6.33;;;;;;;;5041827;28;48156;-67
2022/09/18 08:30:14;;;;;;;;;6.00;6.00;;;;;;;;5043092;28;45260;-66
2022/09/18 08:32:39;;;;;;;;;5.67;5.00;;;;;;;;5043322;28;45252;-67
2022/09/18 08:35:05;;;;;;;;;7.33;6.33;;;;;;;;5043660;28;45411;-67
2022/09/18 08:37:31;;;;;;;;;10.00;10.00;;;;;;;;5042981;28;45647;-67
2022/09/18 08:39:57;;;;;;;;;6.33;6.33;;;;;;;;5042183;28;45220;-67
2022/09/18 08:42:25;;;;;;;;;10.00;10.00;;;;;;;;5022737;28;45297;-67
2022/09/18 08:45:05;;;;;;;;;7.67;6.00;;;;;;;;5038125;28;45398;-67
2022/09/18 08:47:34;;;;;;;;;8.00;8.00;;;;;;;;5024580;28;47689;-67
2022/09/18 08:50:20;;;;;;;;;7.33;6.67;;;;;;;;5043053;28;45263;-67
2022/09/18 08:52:52;;;;;;;;;7.33;7.33;;;;;;;;5042016;28;45268;-69
2022/09/18 08:55:17;;;;;;;;;5.00;5.00;;;;;;;;5043812;28;45166;-68
2022/09/18 08:57:47;;;;;;;;;6.67;5.33;;;;;;;;5025083;28;48039;-68
2022/09/18 09:00:12;;;;;;;;;6.67;5.67;;;;;;;;5043486;28;45306;-68
2022/09/18 09:02:41;;;;;;;;;4.67;4.67;;;;;;;;5025154;28;45473;-68
2022/09/18 09:05:17;;;;;;;;;5.67;5.67;;;;;;;;5043320;28;45297;-68
2022/09/18 09:07:45;;;;;;;;;5.00;5.00;;;;;;;;5041149;28;48047;-67
2022/09/18 09:10:19;;;;;;;;;7.67;5.00;;;;;;;;5042936;28;45282;-67
2022/09/18 09:13:03;;;;;;;;;7.67;6.67;;;;;;;;5024683;28;45279;-68
2022/09/18 09:15:44;;;;;;;;;7.00;4.00;;;;;;;;5042811;28;45242;-68
2022/09/18 09:18:16;;;;;;;;;5.00;5.00;;;;;;;;5042385;28;46190;-68
2022/09/18 09:20:44;;;;;;;;;5.33;3.33;;;;;;;;5042328;28;45341;-68
2022/09/18 09:23:15;;;;;;;;;5.00;4.00;;;;;;;;5042390;28;45264;-68
2022/09/18 09:25:46;;;;;;;;;4.00;4.00;;;;;;;;5042221;28;45356;-68
2022/09/18 09:28:30;;;;;;;;;6.67;4.67;;;;;;;;5042232;28;46225;-68
2022/09/18 09:30:59;;;;;;;;;3.33;3.33;;;;;;;;5042382;28;45360;-68
2022/09/18 09:33:36;;;;;;;;;5.00;4.00;;;;;;;;5042646;28;45335;-68
2022/09/18 09:36:04;;;;;;;;;4.00;4.00;;;;;;;;5043376;28;45342;-68
2022/09/18 09:38:39;;;;;;;;;2.67;2.67;;;;;;;;5041771;28;45433;-68
2022/09/18 09:41:12;;;;;;;;;5.67;5.67;;;;;;;;5042344;28;45219;-68
2022/09/18 09:43:56;;;;;;;;;5.00;5.00;;;;;;;;5041929;28;45397;-68
2022/09/18 09:46:40;;;;;;;;;4.67;3.33;;;;;;;;5042680;28;45197;-68
2022/09/18 09:49:22;;;;;;;;;4.00;4.00;;;;;;;;5041603;28;45356;-68
2022/09/18 09:52:06;;;;;;;;;2.33;2.33;;;;;;;;5043710;28;45343;-69
2022/09/18 09:54:31;;;;;;;;;2.00;2.00;;;;;;;;5045268;28;45586;-68
2022/09/18 09:56:56;;;;;;;;;4.00;4.00;;;;;;;;5046023;28;45458;-68
2022/09/18 09:59:22;;;;;;;;;5.25;4.00;;;;;;;;5027204;28;47195;-68
2022/09/18 10:01:58;;;;;;;;;1.67;1.67;;;;;;;;5045722;28;45182;-68
2022/09/18 10:04:35;;;;;;;;;3.00;3.00;;;;;;;;5045871;28;45298;-68
2022/09/18 10:07:18;;;;;;;;;3.00;2.00;;;;;;;;5046024;28;45239;-68
2022/09/18 10:10:04;;;;;;;;;2.33;2.00;;;;;;;;5045344;28;45633;-68
2022/09/18 10:12:38;;;;;;;;;3.00;3.00;;;;;;;;5060745;28;45279;-68
2022/09/18 10:15:16;;;;;;;;;3.67;3.67;;;;;;;;5045737;28;45276;-69
2022/09/18 10:17:43;;;;;;;;;3.00;3.00;;;;;;;;5045876;28;45330;-68
2022/09/18 10:20:16;;;;;;;;;5.00;4.00;;;;;;;;5045220;28;45562;-68
2022/09/18 10:22:41;;;;;;;;;5.00;2.00;;;;;;;;5044610;28;45383;-68
2022/09/18 10:25:14;;;;;;;;;2.33;2.33;;;;;;;;5027351;28;45339;-68
2022/09/18 10:27:39;;;;;;;;;3.33;3.33;;;;;;;;5045403;28;45185;-69
2022/09/18 10:30:14;;;;;;;;;4.00;3.00;;;;;;;;5044749;28;45166;-68
2022/09/18 10:32:42;;;;;;;;;2.67;2.67;;;;;;;;5027229;28;45302;-68
2022/09/18 10:35:37;;;;;;;;;3.00;3.00;;;;;;;;5044881;28;45284;-68
2022/09/18 10:38:02;;;;;;;;;1.00;1.00;;;;;;;;5021510;28;45315;-68
2022/09/18 10:40:38;;;;;;;;;2.00;2.00;;;;;;;;5026472;28;46438;-68
2022/09/18 10:43:05;;;;;;;;;2.00;2.00;;;;;;;;5044894;28;45318;-68
2022/09/18 10:45:35;;;;;;;;;2.33;1.00;;;;;;;;5040917;28;45280;-68
2022/09/18 10:48:23;;;;;;;;;2.33;2.33;;;;;;;;5038858;28;45339;-68
2022/09/18 10:50:53;;;;;;;;;2.00;1.00;;;;;;;;5036546;28;45807;-66
2022/09/18 10:53:24;;;;;;;;;1.33;1.33;;;;;;;;5044702;28;45228;-66
2022/09/18 10:55:49;;;;;;;;;3.00;3.00;;;;;;;;5045287;28;45454;-67
2022/09/18 10:58:15;;;;;;;;;3.00;2.00;;;;;;;;5027280;28;45303;-67
2022/09/18 11:01:06;;;;;;;;;4.67;4.67;;;;;;;;5044828;28;46306;-67
2022/09/18 11:03:32;;;;;;;;;2.00;2.00;;;;;;;;5041672;28;45402;-68
2022/09/18 11:05:59;;;;;;;;;1.67;1.67;;;;;;;;5044692;28;45309;-69
2022/09/18 11:08:26;;;;;;;;;2.67;2.67;;;;;;;;5045249;28;45338;-67
2022/09/18 11:10:55;;;;;;;;;4.00;2.33;;;;;;;;5044466;28;45412;-67
2022/09/18 11:13:23;;;;;;;;;2.00;2.00;;;;;;;;5044806;28;45255;-66
2022/09/18 11:15:51;;;;;;;;;1.67;1.33;;;;;;;;5044490;28;45403;-67
2022/09/18 11:18:17;;;;;;;;;5.00;5.00;;;;;;;;5026638;28;45263;-67
2022/09/18 11:20:43;;;;;;;;;2.33;2.33;;;;;;;;5043265;28;45333;-66
2022/09/18 11:23:13;;;;;;;;;6.67;5.00;;;;;;;;5044185;28;45281;-67
2022/09/18 11:25:38;;;;;;;;;3.00;3.00;;;;;;;;5044409;28;45371;-67
2022/09/18 11:28:19;;;;;;;;;2.00;2.00;;;;;;;;5044201;28;45295;-67
2022/09/18 11:30:53;;;;;;;;;2.00;2.00;;;;;;;;5042643;28;46376;-67
2022/09/18 11:33:25;;;;;;;;;2.00;2.00;;;;;;;;5043382;28;45259;-67
2022/09/18 11:35:55;;;;;;;;;2.00;2.00;;;;;;;;5025191;28;45322;-67
2022/09/18 11:38:21;;;;;;;;;8.33;8.33;;;;;;;;5044319;28;45189;-67
2022/09/18 11:40:50;;;;;;;;;2.00;2.00;;;;;;;;5044119;28;46331;-67
2022/09/18 11:43:20;;;;;;;;;3.00;3.00;;;;;;;;5044204;28;45354;-67
2022/09/18 11:45:49;;;;;;;;;4.33;1.33;;;;;;;;5043993;28;45200;-67
2022/09/18 11:48:33;;;;;;;;;2.00;1.67;;;;;;;;5044503;28;45308;-67
2022/09/18 11:51:01;;;;;;;;;2.00;2.00;;;;;;;;5043794;28;45429;-67
2022/09/18 11:53:44;;;;;;;;;3.00;3.00;;;;;;;;5025723;28;45287;-67
2022/09/18 11:56:14;;;;;;;;;2.67;2.67;;;;;;;;5044198;28;45440;-67
2022/09/18 11:58:45;;;;;;;;;1.33;1.33;;;;;;;;5044726;28;45192;-67
2022/09/18 12:01:29;;;;;;;;;8.00;3.00;;;;;;;;5043308;28;45457;-67
2022/09/18 12:03:59;;;;;;;;;2.00;2.00;;;;;;;;5043849;28;45339;-66
2022/09/18 12:06:34;;;;;;;;;3.00;3.00;;;;;;;;5043576;28;45384;-67
2022/09/18 12:09:11;;;;;;;;;2.33;2.33;;;;;;;;5042742;28;45515;-67
2022/09/18 12:11:43;;;;;;;;;1.00;1.00;;;;;;;;5043737;28;46517;-68
2022/09/18 12:14:13;;;;;;;;;2.00;2.00;;;;;;;;5043045;28;45375;-67
2022/09/18 12:16:42;;;;;;;;;2.00;2.00;;;;;;;;5043243;28;45524;-67
2022/09/18 12:19:13;;;;;;;;;2.67;2.67;;;;;;;;5042268;28;45464;-67
2022/09/18 12:21:50;;;;;;;;;3.33;3.33;;;;;;;;5041804;28;46282;-68
2022/09/18 12:24:16;;;;;;;;;2.00;2.00;;;;;;;;5040140;28;46779;-67
2022/09/18 12:27:02;;;;;;;;;1.33;1.33;;;;;;;;5041944;28;45436;-68
2022/09/18 12:29:37;;;;;;;;;6.00;3.00;;;;;;;;5040974;28;45469;-67
2022/09/18 12:32:14;;;;;;;;;2.33;2.33;;;;;;;;5047559;28;47101;-67
2022/09/18 12:34:45;;;;;;;;;1.00;1.00;;;;;;;;5038966;28;45348;-67
2022/09/18 12:37:16;;;;;;;;;1.00;1.00;;;;;;;;5041820;28;45470;-67
2022/09/18 12:39:53;;;;;;;;;2.33;2.33;;;;;;;;5039635;28;45582;-68
2022/09/18 12:42:31;;;;;;;;;4.00;2.00;;;;;;;;5037507;28;46680;-68
2022/09/18 12:45:17;;;;;;;;;2.00;2.00;;;;;;;;5041612;28;45533;-67
2022/09/18 12:47:56;;;;;;;;;3.67;3.67;;;;;;;;5039376;28;45220;-67
2022/09/18 12:50:28;;;;;;;;;3.00;3.00;;;;;;;;5041978;28;45856;-67
2022/09/18 12:52:59;;;;;;;;;2.00;2.00;;;;;;;;5040841;28;45487;-67
2022/09/18 12:55:30;;;;;;;;;0.00;0.00;;;;;;;;5041569;28;45467;-67
2022/09/18 12:58:14;;;;;;;;;1.67;1.67;;;;;;;;5041060;28;45722;-68
2022/09/18 13:00:42;;;;;;;;;3.33;3.33;;;;;;;;5041346;28;45221;-68
2022/09/18 13:03:25;;;;;;;;;2.00;2.00;;;;;;;;5024062;28;47144;-68
2022/09/18 13:05:50;;;;;;;;;2.00;2.00;;;;;;;;5040632;28;45447;-69
2022/09/18 13:08:31;;;;;;;;;2.00;2.00;;;;;;;;5041699;28;45477;-68
2022/09/18 13:11:00;;;;;;;;;2.33;2.33;;;;;;;;5042558;28;45331;-68
2022/09/18 13:13:44;;;;;;;;;2.00;2.00;;;;;;;;5043133;28;45302;-67
2022/09/18 13:16:12;;;;;;;;;3.00;2.00;;;;;;;;5042655;28;45169;-66
2022/09/18 13:18:42;;;;;;;;;1.00;1.00;;;;;;;;5043245;28;45328;-67
2022/09/18 13:21:27;;;;;;;;;2.00;2.00;;;;;;;;5043034;28;45233;-67
2022/09/18 13:23:53;;;;;;;;;2.00;2.00;;;;;;;;5042407;28;45299;-66
2022/09/18 13:26:20;;;;;;;;;4.00;2.33;;;;;;;;5043860;28;45295;-67
2022/09/18 13:28:46;;;;;;;;;2.00;2.00;;;;;;;;5046255;28;45204;-66
2022/09/18 13:31:13;;;;;;;;;3.00;2.33;;;;;;;;5046569;28;45663;-67
2022/09/18 13:33:38;;;;;;;;;5.00;5.00;;;;;;;;5046183;28;45413;-67
2022/09/18 13:36:03;;;;;;;;;1.67;1.67;;;;;;;;5046340;28;45358;-66
2022/09/18 13:38:29;;;;;;;;;3.33;2.00;;;;;;;;5046477;28;45468;-66
2022/09/18 13:40:59;;;;;;;;;2.00;1.33;;;;;;;;5046629;28;45302;-66
2022/09/18 13:43:27;;;;;;;;;4.00;2.00;;;;;;;;5044556;28;45852;-66
2022/09/18 13:45:56;;;;;;;;;1.67;1.67;;;;;;;;5046294;28;45358;-67
2022/09/18 13:48:25;;;;;;;;;7.00;4.00;;;;;;;;5046224;28;45311;-68
2022/09/18 13:50:50;;;;;;;;;3.00;2.00;;;;;;;;5046601;28;45246;-67
2022/09/18 13:53:31;;;;;;;;;2.00;2.00;;;;;;;;5045719;28;46062;-66
2022/09/18 13:55:56;;;;;;;;;3.00;3.00;;;;;;;;5046104;28;45260;-66
2022/09/18 13:58:32;;;;;;;;;2.67;1.33;;;;;;;;5027648;28;45438;-66
2022/09/18 14:00:59;;;;;;;;;5.00;3.00;;;;;;;;5046069;28;45433;-68
2022/09/18 14:03:24;;;;;;;;;2.67;2.67;;;;;;;;5045683;28;46214;-66
2022/09/18 14:05:49;;;;;;;;;3.33;3.33;;;;;;;;5045705;28;45337;-66
2022/09/18 14:08:17;;;;;;;;;2.00;2.00;;;;;;;;5045132;28;45457;-67
2022/09/18 14:10:42;;;;;;;;;3.00;3.00;;;;;;;;5045922;28;45379;-67
2022/09/18 14:13:17;;;;;;;;;4.67;4.00;;;;;;;;5045631;28;45642;-67
2022/09/18 14:15:58;;;;;;;;;2.00;2.00;;;;;;;;5027295;28;45392;-67
2022/09/18 14:18:27;;;;;;;;;5.00;3.67;;;;;;;;5027570;28;45256;-66
2022/09/18 14:20:54;;;;;;;;;3.67;3.67;;;;;;;;5045727;28;45418;-67
2022/09/18 14:23:34;;;;;;;;;3.00;1.67;;;;;;;;5045139;28;46563;-67
2022/09/18 14:26:00;;;;;;;;;2.67;2.00;;;;;;;;5045094;28;45208;-67
2022/09/18 14:28:27;;;;;;;;;4.00;2.33;;;;;;;;5045400;28;45177;-67
2022/09/18 14:31:08;;;;;;;;;3.67;2.00;;;;;;;;5045450;28;45426;-67
2022/09/18 14:33:33;;;;;;;;;4.00;4.00;;;;;;;;5027104;28;48257;-66
2022/09/18 14:36:03;;;;;;;;;2.00;2.00;;;;;;;;5045564;28;45281;-66
2022/09/18 14:38:36;;;;;;;;;4.00;2.67;;;;;;;;5044561;28;45311;-66
2022/09/18 14:41:06;;;;;;;;;3.00;3.00;;;;;;;;5045318;28;45392;-66
2022/09/18 14:43:31;;;;;;;;;1.33;1.33;;;;;;;;5044878;28;46580;-68
2022/09/18 14:45:56;;;;;;;;;2.00;2.00;;;;;;;;5044831;28;45321;-67
2022/09/18 14:48:29;;;;;;;;;1.00;1.00;;;;;;;;5044999;28;45335;-67
2022/09/18 14:51:05;;;;;;;;;0.67;0.67;;;;;;;;5045682;28;45550;-66
2022/09/18 14:53:38;;;;;;;;;1.00;1.00;;;;;;;;5044669;28;46162;-68
2022/09/18 14:56:04;;;;;;;;;1.67;1.33;;;;;;;;5045145;28;45402;-68